sensor_id;sensor_type;location;lat;lon;timestamp;temperature;humidity
9816;DHT22;4947;44.526;11.360;2022-12-07T00:00:54;6.10;76.60
9816;DHT22;4947;44.526;11.360;2022-12-07T00:03:22;6.20;77.80
9816;DHT22;4947;44.526;11.360;2022-12-07T00:05:49;6.10;77.10
9816;DHT22;4947;44.526;11.360;2022-12-07T00:08:20;6.10;77.10
9816;DHT22;4947;44.526;11.360;2022-12-07T00:10:49;6.20;78.30
9816;DHT22;4947;44.526;11.360;2022-12-07T00:13:18;6.10;76.20
9816;DHT22;4947;44.526;11.360;2022-12-07T00:15:45;6.00;75.00
9816;DHT22;4947;44.526;11.360;2022-12-07T00:18:13;5.90;74.30
9816;DHT22;4947;44.526;11.360;2022-12-07T00:20:40;5.80;74.60
9816;DHT22;4947;44.526;11.360;2022-12-07T00:23:08;5.80;76.10
9816;DHT22;4947;44.526;11.360;2022-12-07T00:25:36;5.80;77.20
9816;DHT22;4947;44.526;11.360;2022-12-07T00:28:04;5.70;77.40
9816;DHT22;4947;44.526;11.360;2022-12-07T00:30:32;5.70;78.50
9816;DHT22;4947;44.526;11.360;2022-12-07T00:33:00;5.70;78.80
9816;DHT22;4947;44.526;11.360;2022-12-07T00:35:28;5.70;77.80
9816;DHT22;4947;44.526;11.360;2022-12-07T00:37:56;5.70;77.90
9816;DHT22;4947;44.526;11.360;2022-12-07T00:40:24;5.70;78.00
9816;DHT22;4947;44.526;11.360;2022-12-07T00:42:51;5.70;78.90
9816;DHT22;4947;44.526;11.360;2022-12-07T00:45:19;5.70;78.90
9816;DHT22;4947;44.526;11.360;2022-12-07T00:47:48;5.60;77.90
9816;DHT22;4947;44.526;11.360;2022-12-07T00:50:15;5.70;79.50
9816;DHT22;4947;44.526;11.360;2022-12-07T00:52:43;5.60;79.00
9816;DHT22;4947;44.526;11.360;2022-12-07T00:55:10;5.60;79.90
9816;DHT22;4947;44.526;11.360;2022-12-07T00:57:38;5.60;80.30
9816;DHT22;4947;44.526;11.360;2022-12-07T01:00:07;5.60;80.00
9816;DHT22;4947;44.526;11.360;2022-12-07T01:02:38;5.60;80.60
9816;DHT22;4947;44.526;11.360;2022-12-07T01:05:09;5.50;80.00
9816;DHT22;4947;44.526;11.360;2022-12-07T01:07:36;5.50;80.00
9816;DHT22;4947;44.526;11.360;2022-12-07T01:10:05;5.40;80.50
9816;DHT22;4947;44.526;11.360;2022-12-07T01:12:32;5.50;81.30
9816;DHT22;4947;44.526;11.360;2022-12-07T01:15:00;5.50;81.50
9816;DHT22;4947;44.526;11.360;2022-12-07T01:17:28;5.50;82.00
9816;DHT22;4947;44.526;11.360;2022-12-07T01:19:56;5.50;81.40
9816;DHT22;4947;44.526;11.360;2022-12-07T01:22:26;5.40;80.60
9816;DHT22;4947;44.526;11.360;2022-12-07T01:24:53;5.30;80.20
9816;DHT22;4947;44.526;11.360;2022-12-07T01:27:23;5.40;80.50
9816;DHT22;4947;44.526;11.360;2022-12-07T01:29:51;5.30;79.70
9816;DHT22;4947;44.526;11.360;2022-12-07T01:32:18;5.30;80.90
9816;DHT22;4947;44.526;11.360;2022-12-07T01:34:47;5.30;80.80
9816;DHT22;4947;44.526;11.360;2022-12-07T01:37:15;5.30;81.30
9816;DHT22;4947;44.526;11.360;2022-12-07T01:39:47;5.30;81.00
9816;DHT22;4947;44.526;11.360;2022-12-07T01:42:15;5.30;81.90
9816;DHT22;4947;44.526;11.360;2022-12-07T01:47:47;5.30;82.30
9816;DHT22;4947;44.526;11.360;2022-12-07T01:50:18;5.20;81.20
9816;DHT22;4947;44.526;11.360;2022-12-07T01:52:49;5.20;81.10
9816;DHT22;4947;44.526;11.360;2022-12-07T01:55:20;5.20;82.70
9816;DHT22;4947;44.526;11.360;2022-12-07T01:57:52;5.30;83.00
9816;DHT22;4947;44.526;11.360;2022-12-07T02:00:20;5.30;82.10
9816;DHT22;4947;44.526;11.360;2022-12-07T02:02:52;5.30;81.50
9816;DHT22;4947;44.526;11.360;2022-12-07T02:05:20;5.20;79.60
9816;DHT22;4947;44.526;11.360;2022-12-07T02:07:49;5.20;79.60
9816;DHT22;4947;44.526;11.360;2022-12-07T02:10:21;5.30;79.80
9816;DHT22;4947;44.526;11.360;2022-12-07T02:12:52;5.20;79.20
9816;DHT22;4947;44.526;11.360;2022-12-07T02:15:22;5.20;79.00
9816;DHT22;4947;44.526;11.360;2022-12-07T02:17:58;5.30;78.70
9816;DHT22;4947;44.526;11.360;2022-12-07T02:20:30;5.30;78.80
9816;DHT22;4947;44.526;11.360;2022-12-07T02:23:26;5.30;77.70
9816;DHT22;4947;44.526;11.360;2022-12-07T02:29:28;5.10;75.30
9816;DHT22;4947;44.526;11.360;2022-12-07T02:32:03;5.20;76.00
9816;DHT22;4947;44.526;11.360;2022-12-07T02:34:42;5.20;74.80
9816;DHT22;4947;44.526;11.360;2022-12-07T02:37:20;5.20;74.50
9816;DHT22;4947;44.526;11.360;2022-12-07T02:39:52;5.20;75.00
9816;DHT22;4947;44.526;11.360;2022-12-07T02:42:25;5.20;75.10
9816;DHT22;4947;44.526;11.360;2022-12-07T02:44:57;5.30;75.60
9816;DHT22;4947;44.526;11.360;2022-12-07T02:47:25;5.40;74.70
9816;DHT22;4947;44.526;11.360;2022-12-07T02:49:54;5.30;72.70
9816;DHT22;4947;44.526;11.360;2022-12-07T02:52:22;5.30;72.50
9816;DHT22;4947;44.526;11.360;2022-12-07T02:54:50;5.30;73.30
9816;DHT22;4947;44.526;11.360;2022-12-07T03:00:21;5.30;73.80
9816;DHT22;4947;44.526;11.360;2022-12-07T03:02:53;5.20;73.60
9816;DHT22;4947;44.526;11.360;2022-12-07T03:05:44;5.10;74.10
9816;DHT22;4947;44.526;11.360;2022-12-07T03:08:18;5.10;76.20
9816;DHT22;4947;44.526;11.360;2022-12-07T03:10:53;5.10;77.30
9816;DHT22;4947;44.526;11.360;2022-12-07T03:13:24;5.20;79.30
9816;DHT22;4947;44.526;11.360;2022-12-07T03:15:59;5.30;79.30
9816;DHT22;4947;44.526;11.360;2022-12-07T03:18:31;5.30;80.00
9816;DHT22;4947;44.526;11.360;2022-12-07T03:21:02;5.30;79.30
9816;DHT22;4947;44.526;11.360;2022-12-07T03:23:34;5.30;79.80
9816;DHT22;4947;44.526;11.360;2022-12-07T03:26:03;5.30;79.70
9816;DHT22;4947;44.526;11.360;2022-12-07T03:28:36;5.30;80.10
9816;DHT22;4947;44.526;11.360;2022-12-07T03:31:12;5.40;80.70
9816;DHT22;4947;44.526;11.360;2022-12-07T03:33:46;5.40;80.70
9816;DHT22;4947;44.526;11.360;2022-12-07T03:36:20;5.40;80.40
9816;DHT22;4947;44.526;11.360;2022-12-07T03:38:52;5.40;80.90
9816;DHT22;4947;44.526;11.360;2022-12-07T03:41:24;5.40;80.30
9816;DHT22;4947;44.526;11.360;2022-12-07T03:43:54;5.40;79.00
9816;DHT22;4947;44.526;11.360;2022-12-07T03:46:31;5.40;78.80
9816;DHT22;4947;44.526;11.360;2022-12-07T03:49:07;5.40;79.60
9816;DHT22;4947;44.526;11.360;2022-12-07T03:51:40;5.30;79.10
9816;DHT22;4947;44.526;11.360;2022-12-07T03:54:15;5.30;80.60
9816;DHT22;4947;44.526;11.360;2022-12-07T03:56:47;5.30;80.50
9816;DHT22;4947;44.526;11.360;2022-12-07T03:59:16;5.30;81.70
9816;DHT22;4947;44.526;11.360;2022-12-07T04:01:51;5.30;82.40
9816;DHT22;4947;44.526;11.360;2022-12-07T04:04:20;5.30;82.80
9816;DHT22;4947;44.526;11.360;2022-12-07T04:06:47;5.30;83.40
9816;DHT22;4947;44.526;11.360;2022-12-07T04:09:15;5.40;84.20
9816;DHT22;4947;44.526;11.360;2022-12-07T04:11:43;5.40;84.00
9816;DHT22;4947;44.526;11.360;2022-12-07T04:14:10;5.40;84.50
9816;DHT22;4947;44.526;11.360;2022-12-07T04:16:49;5.40;84.40
9816;DHT22;4947;44.526;11.360;2022-12-07T04:19:18;5.50;85.00
9816;DHT22;4947;44.526;11.360;2022-12-07T04:21:46;5.50;84.30
9816;DHT22;4947;44.526;11.360;2022-12-07T04:24:15;5.40;83.10
9816;DHT22;4947;44.526;11.360;2022-12-07T04:26:43;5.50;84.10
9816;DHT22;4947;44.526;11.360;2022-12-07T04:29:11;5.50;83.20
9816;DHT22;4947;44.526;11.360;2022-12-07T04:31:39;5.50;83.30
9816;DHT22;4947;44.526;11.360;2022-12-07T04:34:09;5.40;83.50
9816;DHT22;4947;44.526;11.360;2022-12-07T04:36:38;5.50;84.10
9816;DHT22;4947;44.526;11.360;2022-12-07T04:39:07;5.50;84.20
9816;DHT22;4947;44.526;11.360;2022-12-07T04:41:35;5.50;83.60
9816;DHT22;4947;44.526;11.360;2022-12-07T04:44:04;5.40;83.40
9816;DHT22;4947;44.526;11.360;2022-12-07T04:46:33;5.50;84.40
9816;DHT22;4947;44.526;11.360;2022-12-07T04:49:01;5.50;84.80
9816;DHT22;4947;44.526;11.360;2022-12-07T04:51:30;5.50;84.40
9816;DHT22;4947;44.526;11.360;2022-12-07T04:53:57;5.40;84.10
9816;DHT22;4947;44.526;11.360;2022-12-07T04:56:25;5.40;84.60
9816;DHT22;4947;44.526;11.360;2022-12-07T04:58:53;5.40;86.60
9816;DHT22;4947;44.526;11.360;2022-12-07T05:01:22;5.50;86.70
9816;DHT22;4947;44.526;11.360;2022-12-07T05:03:55;5.50;87.10
9816;DHT22;4947;44.526;11.360;2022-12-07T05:06:23;5.50;86.50
9816;DHT22;4947;44.526;11.360;2022-12-07T05:08:52;5.50;86.80
9816;DHT22;4947;44.526;11.360;2022-12-07T05:11:20;5.60;87.80
9816;DHT22;4947;44.526;11.360;2022-12-07T05:14:08;5.60;86.60
9816;DHT22;4947;44.526;11.360;2022-12-07T05:16:36;5.70;86.10
9816;DHT22;4947;44.526;11.360;2022-12-07T05:19:04;5.60;85.00
9816;DHT22;4947;44.526;11.360;2022-12-07T05:21:33;5.50;84.60
9816;DHT22;4947;44.526;11.360;2022-12-07T05:24:03;5.60;85.40
9816;DHT22;4947;44.526;11.360;2022-12-07T05:26:31;5.50;84.60
9816;DHT22;4947;44.526;11.360;2022-12-07T05:28:59;5.60;85.40
9816;DHT22;4947;44.526;11.360;2022-12-07T05:31:27;5.60;85.50
9816;DHT22;4947;44.526;11.360;2022-12-07T05:33:54;5.60;85.50
9816;DHT22;4947;44.526;11.360;2022-12-07T05:36:22;5.60;85.50
9816;DHT22;4947;44.526;11.360;2022-12-07T05:38:50;5.70;85.50
9816;DHT22;4947;44.526;11.360;2022-12-07T05:41:19;5.70;85.00
9816;DHT22;4947;44.526;11.360;2022-12-07T05:44:04;5.70;85.10
9816;DHT22;4947;44.526;11.360;2022-12-07T05:46:31;5.70;84.90
9816;DHT22;4947;44.526;11.360;2022-12-07T05:49:00;5.70;84.90
9816;DHT22;4947;44.526;11.360;2022-12-07T05:51:27;5.80;85.00
9816;DHT22;4947;44.526;11.360;2022-12-07T05:53:57;5.80;84.70
9816;DHT22;4947;44.526;11.360;2022-12-07T05:56:27;5.80;84.70
9816;DHT22;4947;44.526;11.360;2022-12-07T05:58:54;5.70;84.00
9816;DHT22;4947;44.526;11.360;2022-12-07T06:01:38;5.70;83.60
9816;DHT22;4947;44.526;11.360;2022-12-07T06:04:06;5.80;83.70
9816;DHT22;4947;44.526;11.360;2022-12-07T06:06:34;5.70;82.40
9816;DHT22;4947;44.526;11.360;2022-12-07T06:09:02;5.70;82.30
9816;DHT22;4947;44.526;11.360;2022-12-07T06:11:31;5.70;82.30
9816;DHT22;4947;44.526;11.360;2022-12-07T06:14:16;5.60;81.90
9816;DHT22;4947;44.526;11.360;2022-12-07T06:16:43;5.70;82.20
9816;DHT22;4947;44.526;11.360;2022-12-07T06:19:11;5.70;82.70
9816;DHT22;4947;44.526;11.360;2022-12-07T06:21:39;5.80;83.00
9816;DHT22;4947;44.526;11.360;2022-12-07T06:24:07;5.70;82.10
9816;DHT22;4947;44.526;11.360;2022-12-07T06:26:36;5.80;81.80
9816;DHT22;4947;44.526;11.360;2022-12-07T06:29:04;5.80;81.30
9816;DHT22;4947;44.526;11.360;2022-12-07T06:31:31;5.80;80.60
9816;DHT22;4947;44.526;11.360;2022-12-07T06:33:59;5.70;80.00
9816;DHT22;4947;44.526;11.360;2022-12-07T06:36:27;5.70;79.20
9816;DHT22;4947;44.526;11.360;2022-12-07T06:38:55;5.70;80.20
9816;DHT22;4947;44.526;11.360;2022-12-07T06:41:23;5.80;80.70
9816;DHT22;4947;44.526;11.360;2022-12-07T06:43:52;5.70;80.30
9816;DHT22;4947;44.526;11.360;2022-12-07T06:46:27;5.70;79.80
9816;DHT22;4947;44.526;11.360;2022-12-07T06:48:54;5.70;79.80
9816;DHT22;4947;44.526;11.360;2022-12-07T06:51:22;5.80;80.60
9816;DHT22;4947;44.526;11.360;2022-12-07T06:53:49;5.80;80.80
9816;DHT22;4947;44.526;11.360;2022-12-07T06:56:17;5.70;80.10
9816;DHT22;4947;44.526;11.360;2022-12-07T06:58:44;5.70;80.10
9816;DHT22;4947;44.526;11.360;2022-12-07T07:01:15;5.80;80.60
9816;DHT22;4947;44.526;11.360;2022-12-07T07:03:47;5.80;80.80
9816;DHT22;4947;44.526;11.360;2022-12-07T07:06:15;5.80;80.60
9816;DHT22;4947;44.526;11.360;2022-12-07T07:08:43;5.80;80.60
9816;DHT22;4947;44.526;11.360;2022-12-07T07:11:10;5.80;80.30
9816;DHT22;4947;44.526;11.360;2022-12-07T07:13:38;5.80;80.80
9816;DHT22;4947;44.526;11.360;2022-12-07T07:16:07;5.80;81.00
9816;DHT22;4947;44.526;11.360;2022-12-07T07:18:36;5.90;81.80
9816;DHT22;4947;44.526;11.360;2022-12-07T07:21:04;5.80;80.80
9816;DHT22;4947;44.526;11.360;2022-12-07T07:23:32;5.80;81.20
9816;DHT22;4947;44.526;11.360;2022-12-07T07:26:00;5.80;81.40
9816;DHT22;4947;44.526;11.360;2022-12-07T07:28:27;5.80;80.90
9816;DHT22;4947;44.526;11.360;2022-12-07T07:30:57;5.80;81.10
9816;DHT22;4947;44.526;11.360;2022-12-07T07:33:24;5.80;82.60
9816;DHT22;4947;44.526;11.360;2022-12-07T07:35:53;5.90;83.50
9816;DHT22;4947;44.526;11.360;2022-12-07T07:38:21;6.00;82.20
9816;DHT22;4947;44.526;11.360;2022-12-07T07:40:48;6.00;81.60
9816;DHT22;4947;44.526;11.360;2022-12-07T07:43:16;6.00;81.00
9816;DHT22;4947;44.526;11.360;2022-12-07T07:45:44;6.00;80.50
9816;DHT22;4947;44.526;11.360;2022-12-07T07:48:11;6.00;80.20
9816;DHT22;4947;44.526;11.360;2022-12-07T07:50:38;6.00;80.10
9816;DHT22;4947;44.526;11.360;2022-12-07T07:53:07;6.10;79.90
9816;DHT22;4947;44.526;11.360;2022-12-07T07:55:35;6.10;78.80
9816;DHT22;4947;44.526;11.360;2022-12-07T07:58:02;6.10;77.60
9816;DHT22;4947;44.526;11.360;2022-12-07T08:00:30;6.20;77.00
9816;DHT22;4947;44.526;11.360;2022-12-07T08:02:58;6.20;76.90
9816;DHT22;4947;44.526;11.360;2022-12-07T08:05:25;6.20;76.20
9816;DHT22;4947;44.526;11.360;2022-12-07T08:07:52;6.20;76.10
9816;DHT22;4947;44.526;11.360;2022-12-07T08:10:21;6.20;75.40
9816;DHT22;4947;44.526;11.360;2022-12-07T08:12:49;6.20;74.70
9816;DHT22;4947;44.526;11.360;2022-12-07T08:15:33;6.20;75.40
9816;DHT22;4947;44.526;11.360;2022-12-07T08:18:04;6.20;75.50
9816;DHT22;4947;44.526;11.360;2022-12-07T08:20:32;6.20;76.10
9816;DHT22;4947;44.526;11.360;2022-12-07T08:23:02;6.30;76.30
9816;DHT22;4947;44.526;11.360;2022-12-07T08:25:32;6.30;76.70
9816;DHT22;4947;44.526;11.360;2022-12-07T08:27:59;6.30;76.00
9816;DHT22;4947;44.526;11.360;2022-12-07T08:30:28;6.30;74.10
9816;DHT22;4947;44.526;11.360;2022-12-07T08:32:57;6.30;72.30
9816;DHT22;4947;44.526;11.360;2022-12-07T08:35:25;6.40;71.90
9816;DHT22;4947;44.526;11.360;2022-12-07T08:37:53;6.40;71.60
9816;DHT22;4947;44.526;11.360;2022-12-07T08:40:20;6.40;70.10
9816;DHT22;4947;44.526;11.360;2022-12-07T08:42:52;6.40;69.30
9816;DHT22;4947;44.526;11.360;2022-12-07T08:45:20;6.40;67.90
9816;DHT22;4947;44.526;11.360;2022-12-07T08:47:52;6.50;66.50
9816;DHT22;4947;44.526;11.360;2022-12-07T08:50:21;6.60;64.00
9816;DHT22;4947;44.526;11.360;2022-12-07T08:52:51;6.50;59.30
9816;DHT22;4947;44.526;11.360;2022-12-07T08:55:20;6.50;59.50
9816;DHT22;4947;44.526;11.360;2022-12-07T08:57:48;6.60;59.80
9816;DHT22;4947;44.526;11.360;2022-12-07T09:00:18;6.60;57.40
9816;DHT22;4947;44.526;11.360;2022-12-07T09:02:46;6.60;57.60
9816;DHT22;4947;44.526;11.360;2022-12-07T09:05:13;6.60;59.10
9816;DHT22;4947;44.526;11.360;2022-12-07T09:07:43;6.70;62.60
9816;DHT22;4947;44.526;11.360;2022-12-07T09:10:12;6.80;60.40
9816;DHT22;4947;44.526;11.360;2022-12-07T09:12:39;6.70;55.80
9816;DHT22;4947;44.526;11.360;2022-12-07T09:15:09;6.80;57.00
9816;DHT22;4947;44.526;11.360;2022-12-07T09:17:38;6.80;54.10
9816;DHT22;4947;44.526;11.360;2022-12-07T09:20:06;6.90;49.70
9816;DHT22;4947;44.526;11.360;2022-12-07T09:22:34;6.90;50.10
9816;DHT22;4947;44.526;11.360;2022-12-07T09:25:02;6.90;48.10
9816;DHT22;4947;44.526;11.360;2022-12-07T09:27:30;7.00;47.10
9816;DHT22;4947;44.526;11.360;2022-12-07T09:29:57;7.00;45.90
9816;DHT22;4947;44.526;11.360;2022-12-07T09:32:25;6.80;43.90
9816;DHT22;4947;44.526;11.360;2022-12-07T09:34:54;6.90;47.40
9816;DHT22;4947;44.526;11.360;2022-12-07T09:37:22;7.00;48.50
9816;DHT22;4947;44.526;11.360;2022-12-07T09:39:49;7.00;45.20
9816;DHT22;4947;44.526;11.360;2022-12-07T09:42:27;7.10;44.60
9816;DHT22;4947;44.526;11.360;2022-12-07T09:44:55;7.10;42.70
9816;DHT22;4947;44.526;11.360;2022-12-07T09:47:23;7.10;40.10
9816;DHT22;4947;44.526;11.360;2022-12-07T09:49:51;7.00;39.20
9816;DHT22;4947;44.526;11.360;2022-12-07T09:52:26;7.10;42.10
9816;DHT22;4947;44.526;11.360;2022-12-07T09:54:53;7.20;40.60
9816;DHT22;4947;44.526;11.360;2022-12-07T09:57:26;7.10;35.00
9816;DHT22;4947;44.526;11.360;2022-12-07T09:59:55;7.10;37.50
9816;DHT22;4947;44.526;11.360;2022-12-07T10:02:27;7.10;39.10
9816;DHT22;4947;44.526;11.360;2022-12-07T10:04:57;7.30;37.60
9816;DHT22;4947;44.526;11.360;2022-12-07T10:07:26;7.30;38.20
9816;DHT22;4947;44.526;11.360;2022-12-07T10:09:54;7.40;35.70
9816;DHT22;4947;44.526;11.360;2022-12-07T10:12:21;7.50;30.50
9816;DHT22;4947;44.526;11.360;2022-12-07T10:14:57;7.40;28.60
9816;DHT22;4947;44.526;11.360;2022-12-07T10:17:32;7.40;27.00
9816;DHT22;4947;44.526;11.360;2022-12-07T10:20:24;7.40;21.70
9816;DHT22;4947;44.526;11.360;2022-12-07T10:23:04;7.40;22.50
9816;DHT22;4947;44.526;11.360;2022-12-07T10:25:33;7.40;20.70
9816;DHT22;4947;44.526;11.360;2022-12-07T10:28:17;7.50;17.60
9816;DHT22;4947;44.526;11.360;2022-12-07T10:30:55;7.50;18.60
9816;DHT22;4947;44.526;11.360;2022-12-07T10:33:29;7.60;19.00
9816;DHT22;4947;44.526;11.360;2022-12-07T10:35:58;7.60;19.20
9816;DHT22;4947;44.526;11.360;2022-12-07T10:38:28;7.60;19.40
9816;DHT22;4947;44.526;11.360;2022-12-07T10:41:07;7.70;17.90
9816;DHT22;4947;44.526;11.360;2022-12-07T10:43:35;7.80;12.70
9816;DHT22;4947;44.526;11.360;2022-12-07T10:46:27;7.70;5.50
9816;DHT22;4947;44.526;11.360;2022-12-07T10:49:05;7.90;11.60
9816;DHT22;4947;44.526;11.360;2022-12-07T10:51:41;7.90;10.70
9816;DHT22;4947;44.526;11.360;2022-12-07T10:54:21;8.00;7.50
9816;DHT22;4947;44.526;11.360;2022-12-07T11:00:04;8.10;7.30
9816;DHT22;4947;44.526;11.360;2022-12-07T11:02:52;8.20;1.00
9816;DHT22;4947;44.526;11.360;2022-12-07T11:05:27;8.20;1.00
9816;DHT22;4947;44.526;11.360;2022-12-07T11:08:04;8.30;1.00
9816;DHT22;4947;44.526;11.360;2022-12-07T11:10:41;8.20;1.00
9816;DHT22;4947;44.526;11.360;2022-12-07T11:13:22;8.10;1.00
9816;DHT22;4947;44.526;11.360;2022-12-07T11:16:04;8.00;1.00
9816;DHT22;4947;44.526;11.360;2022-12-07T11:18:44;8.20;1.00
9816;DHT22;4947;44.526;11.360;2022-12-07T11:21:19;8.20;1.00
9816;DHT22;4947;44.526;11.360;2022-12-07T11:23:55;8.30;1.00
9816;DHT22;4947;44.526;11.360;2022-12-07T11:26:34;8.30;1.00
9816;DHT22;4947;44.526;11.360;2022-12-07T11:29:21;8.20;1.00
9816;DHT22;4947;44.526;11.360;2022-12-07T11:32:04;8.30;1.00
9816;DHT22;4947;44.526;11.360;2022-12-07T11:34:39;8.30;1.00
9816;DHT22;4947;44.526;11.360;2022-12-07T11:37:12;8.20;1.00
9816;DHT22;4947;44.526;11.360;2022-12-07T11:39:44;8.40;1.00
9816;DHT22;4947;44.526;11.360;2022-12-07T11:42:20;8.30;1.00
9816;DHT22;4947;44.526;11.360;2022-12-07T11:44:52;8.40;1.00
9816;DHT22;4947;44.526;11.360;2022-12-07T11:47:30;8.40;1.00
9816;DHT22;4947;44.526;11.360;2022-12-07T11:50:10;8.50;1.00
9816;DHT22;4947;44.526;11.360;2022-12-07T11:52:44;8.30;1.00
9816;DHT22;4947;44.526;11.360;2022-12-07T11:55:21;8.30;1.00
9816;DHT22;4947;44.526;11.360;2022-12-07T11:57:56;8.40;1.00
9816;DHT22;4947;44.526;11.360;2022-12-07T12:00:27;8.50;1.00
9816;DHT22;4947;44.526;11.360;2022-12-07T12:02:59;8.60;1.00
9816;DHT22;4947;44.526;11.360;2022-12-07T12:05:29;8.70;1.00
9816;DHT22;4947;44.526;11.360;2022-12-07T12:08:03;8.80;1.00
9816;DHT22;4947;44.526;11.360;2022-12-07T12:10:40;8.70;1.00
9816;DHT22;4947;44.526;11.360;2022-12-07T12:13:33;8.60;1.00
9816;DHT22;4947;44.526;11.360;2022-12-07T12:16:15;8.60;1.00
9816;DHT22;4947;44.526;11.360;2022-12-07T12:21:38;8.80;1.00
9816;DHT22;4947;44.526;11.360;2022-12-07T12:24:12;8.70;1.00
9816;DHT22;4947;44.526;11.360;2022-12-07T12:26:49;8.80;1.00
9816;DHT22;4947;44.526;11.360;2022-12-07T12:29:27;8.90;1.00
9816;DHT22;4947;44.526;11.360;2022-12-07T12:32:08;8.90;1.00
9816;DHT22;4947;44.526;11.360;2022-12-07T12:34:40;8.90;1.00
9816;DHT22;4947;44.526;11.360;2022-12-07T12:37:39;8.80;1.00
9816;DHT22;4947;44.526;11.360;2022-12-07T12:43:45;8.90;1.00
9816;DHT22;4947;44.526;11.360;2022-12-07T12:46:49;8.90;1.00
9816;DHT22;4947;44.526;11.360;2022-12-07T12:49:37;8.80;1.00
9816;DHT22;4947;44.526;11.360;2022-12-07T12:55:21;8.70;1.00
9816;DHT22;4947;44.526;11.360;2022-12-07T12:58:29;8.80;1.00
9816;DHT22;4947;44.526;11.360;2022-12-07T13:04:03;8.90;1.00
9816;DHT22;4947;44.526;11.360;2022-12-07T13:06:42;8.80;1.00
9816;DHT22;4947;44.526;11.360;2022-12-07T13:09:19;8.90;1.00
9816;DHT22;4947;44.526;11.360;2022-12-07T13:11:49;8.80;1.00
9816;DHT22;4947;44.526;11.360;2022-12-07T13:14:54;8.80;1.00
9816;DHT22;4947;44.526;11.360;2022-12-07T13:17:57;8.80;1.00
9816;DHT22;4947;44.526;11.360;2022-12-07T13:20:49;8.90;1.00
9816;DHT22;4947;44.526;11.360;2022-12-07T13:23:26;8.80;1.00
9816;DHT22;4947;44.526;11.360;2022-12-07T13:26:12;8.70;1.00
9816;DHT22;4947;44.526;11.360;2022-12-07T13:28:43;8.70;1.00
9816;DHT22;4947;44.526;11.360;2022-12-07T13:31:32;8.70;1.00
9816;DHT22;4947;44.526;11.360;2022-12-07T13:34:28;8.70;1.00
9816;DHT22;4947;44.526;11.360;2022-12-07T13:36:57;8.70;1.00
9816;DHT22;4947;44.526;11.360;2022-12-07T13:39:28;8.60;1.00
9816;DHT22;4947;44.526;11.360;2022-12-07T13:41:57;8.60;1.00
9816;DHT22;4947;44.526;11.360;2022-12-07T13:44:27;8.60;1.00
9816;DHT22;4947;44.526;11.360;2022-12-07T13:47:00;8.60;1.00
9816;DHT22;4947;44.526;11.360;2022-12-07T13:49:32;8.60;1.00
9816;DHT22;4947;44.526;11.360;2022-12-07T13:52:18;8.70;1.00
9816;DHT22;4947;44.526;11.360;2022-12-07T13:54:47;8.70;1.00
9816;DHT22;4947;44.526;11.360;2022-12-07T13:57:15;8.60;1.00
9816;DHT22;4947;44.526;11.360;2022-12-07T13:59:42;8.60;1.00
9816;DHT22;4947;44.526;11.360;2022-12-07T14:02:18;8.60;1.00
9816;DHT22;4947;44.526;11.360;2022-12-07T14:04:49;8.60;1.00
9816;DHT22;4947;44.526;11.360;2022-12-07T14:07:22;8.60;1.00
9816;DHT22;4947;44.526;11.360;2022-12-07T14:09:54;8.60;1.00
9816;DHT22;4947;44.526;11.360;2022-12-07T14:12:23;8.50;1.00
9816;DHT22;4947;44.526;11.360;2022-12-07T14:14:51;8.50;1.00
9816;DHT22;4947;44.526;11.360;2022-12-07T14:17:22;8.50;1.00
9816;DHT22;4947;44.526;11.360;2022-12-07T14:19:51;8.50;1.00
9816;DHT22;4947;44.526;11.360;2022-12-07T14:22:32;8.40;1.00
9816;DHT22;4947;44.526;11.360;2022-12-07T14:25:19;8.30;1.00
9816;DHT22;4947;44.526;11.360;2022-12-07T14:27:52;8.20;1.00
9816;DHT22;4947;44.526;11.360;2022-12-07T14:30:41;8.20;1.00
9816;DHT22;4947;44.526;11.360;2022-12-07T14:33:09;8.10;1.00
9816;DHT22;4947;44.526;11.360;2022-12-07T14:35:37;8.10;1.00
9816;DHT22;4947;44.526;11.360;2022-12-07T14:38:08;8.10;1.00
9816;DHT22;4947;44.526;11.360;2022-12-07T14:40:49;8.00;1.00
9816;DHT22;4947;44.526;11.360;2022-12-07T14:43:19;8.00;1.00
9816;DHT22;4947;44.526;11.360;2022-12-07T14:45:47;8.00;1.00
9816;DHT22;4947;44.526;11.360;2022-12-07T14:48:15;7.90;1.00
9816;DHT22;4947;44.526;11.360;2022-12-07T14:50:45;7.80;3.60
9816;DHT22;4947;44.526;11.360;2022-12-07T14:53:17;7.80;4.60
9816;DHT22;4947;44.526;11.360;2022-12-07T14:55:46;7.70;7.90
9816;DHT22;4947;44.526;11.360;2022-12-07T14:58:15;7.60;12.70
9816;DHT22;4947;44.526;11.360;2022-12-07T15:00:44;7.60;12.90
9816;DHT22;4947;44.526;11.360;2022-12-07T15:03:13;7.50;13.70
9816;DHT22;4947;44.526;11.360;2022-12-07T15:05:41;7.50;13.10
9816;DHT22;4947;44.526;11.360;2022-12-07T15:08:09;7.50;15.30
9816;DHT22;4947;44.526;11.360;2022-12-07T15:10:37;7.40;17.90
9816;DHT22;4947;44.526;11.360;2022-12-07T15:13:06;7.40;19.40
9816;DHT22;4947;44.526;11.360;2022-12-07T15:15:54;7.30;19.20
9816;DHT22;4947;44.526;11.360;2022-12-07T15:18:29;7.20;21.30
9816;DHT22;4947;44.526;11.360;2022-12-07T15:20:56;7.20;22.50
9816;DHT22;4947;44.526;11.360;2022-12-07T15:23:24;7.10;24.70
9816;DHT22;4947;44.526;11.360;2022-12-07T15:25:51;7.10;23.80
9816;DHT22;4947;44.526;11.360;2022-12-07T15:28:19;7.10;22.00
9816;DHT22;4947;44.526;11.360;2022-12-07T15:30:47;7.00;26.40
9816;DHT22;4947;44.526;11.360;2022-12-07T15:33:16;7.00;28.90
9816;DHT22;4947;44.526;11.360;2022-12-07T15:35:45;7.00;27.00
9816;DHT22;4947;44.526;11.360;2022-12-07T15:38:12;6.90;28.10
9816;DHT22;4947;44.526;11.360;2022-12-07T15:40:40;6.90;30.90
9816;DHT22;4947;44.526;11.360;2022-12-07T15:43:09;6.90;29.30
9816;DHT22;4947;44.526;11.360;2022-12-07T15:45:57;6.80;31.30
9816;DHT22;4947;44.526;11.360;2022-12-07T15:48:25;6.80;33.20
9816;DHT22;4947;44.526;11.360;2022-12-07T15:50:52;6.70;32.90
9816;DHT22;4947;44.526;11.360;2022-12-07T15:53:19;6.70;35.70
9816;DHT22;4947;44.526;11.360;2022-12-07T15:55:47;6.60;34.80
9816;DHT22;4947;44.526;11.360;2022-12-07T15:58:15;6.60;38.70
9816;DHT22;4947;44.526;11.360;2022-12-07T16:00:43;6.60;38.70
9816;DHT22;4947;44.526;11.360;2022-12-07T16:03:11;6.60;36.90
9816;DHT22;4947;44.526;11.360;2022-12-07T16:05:39;6.60;35.30
9816;DHT22;4947;44.526;11.360;2022-12-07T16:08:07;6.50;35.90
9816;DHT22;4947;44.526;11.360;2022-12-07T16:10:34;6.50;37.40
9816;DHT22;4947;44.526;11.360;2022-12-07T16:13:01;6.40;41.30
9816;DHT22;4947;44.526;11.360;2022-12-07T16:15:29;6.40;41.20
9816;DHT22;4947;44.526;11.360;2022-12-07T16:17:56;6.40;42.00
9816;DHT22;4947;44.526;11.360;2022-12-07T16:20:27;6.30;43.10
9816;DHT22;4947;44.526;11.360;2022-12-07T16:22:56;6.20;43.90
9816;DHT22;4947;44.526;11.360;2022-12-07T16:25:24;6.20;46.80
9816;DHT22;4947;44.526;11.360;2022-12-07T16:27:52;6.20;47.00
9816;DHT22;4947;44.526;11.360;2022-12-07T16:30:20;6.10;48.40
9816;DHT22;4947;44.526;11.360;2022-12-07T16:32:47;6.00;50.30
9816;DHT22;4947;44.526;11.360;2022-12-07T16:35:15;6.00;52.70
9816;DHT22;4947;44.526;11.360;2022-12-07T16:37:42;6.00;55.80
9816;DHT22;4947;44.526;11.360;2022-12-07T16:40:13;5.90;55.60
9816;DHT22;4947;44.526;11.360;2022-12-07T16:42:40;6.00;54.90
9816;DHT22;4947;44.526;11.360;2022-12-07T16:45:09;6.00;51.80
9816;DHT22;4947;44.526;11.360;2022-12-07T16:47:37;6.00;50.50
9816;DHT22;4947;44.526;11.360;2022-12-07T16:50:05;5.90;51.80
9816;DHT22;4947;44.526;11.360;2022-12-07T16:52:33;5.90;51.40
9816;DHT22;4947;44.526;11.360;2022-12-07T16:55:00;5.80;52.80
9816;DHT22;4947;44.526;11.360;2022-12-07T16:57:32;5.80;57.00